Terminal Aerodrome Forecast
Issued by NWS Cleveland, OH

Home | Current Version | Previous Version | Graphics & Text | Print | Product List | Glossary On
Versions: 1 2 3 4 5 6 7 8 9 10 11 12 13 14 15 16 17 18 19
375
FTUS41 KCLE 190529
TAFMFD
TAF
KMFD 190529Z 1906/2006 11010G18KT P6SM VCSH OVC060
     FM191200 15012G20KT P6SM OVC035
      TEMPO 1912/1915 OVC025
     FM191900 19012G20KT P6SM -SHRA OVC050
     FM200200 26008KT P6SM OVC025=

USA.gov is the U.S. government's official web portal to all federal, state and local government web resources and services.